Time;durP1;ratioP1;P1;durP2;ratioP2;P2;SDS_P1;SDS_P2;PMS_P1;PMS_P2;Temp;Humidity;BMP_temperature;BMP_pressure;BME280_temperature;BME280_humidity;BME280_pressure;Samples;Min_cycle;Max_cycle;Signal;HPM_P1;HPM_P2
2022/05/15 00:02:28;;;;;;;30.20;8.82;;;;;;;13.48;66.52;101848.59;6403249;23;20013;-81
2022/05/15 00:04:59;;;;;;;24.10;9.20;;;;;;;13.48;66.51;101850.38;6403477;23;20443;-77
2022/05/15 00:07:31;;;;;;;22.93;8.83;;;;;;;13.40;66.50;101847.78;6404736;23;20415;-81
2022/05/15 00:10:05;;;;;;;25.50;8.53;;;;;;;13.36;67.10;101847.81;6404067;23;20009;-78
2022/05/15 00:12:36;;;;;;;20.67;9.27;;;;;;;13.34;66.71;101841.75;6403139;23;20021;-81
2022/05/15 00:15:08;;;;;;;31.60;9.27;;;;;;;13.28;67.28;101847.84;6404118;23;20006;-80
2022/05/15 00:17:39;;;;;;;27.00;8.00;;;;;;;13.41;67.25;101849.53;6403772;23;20045;-81
2022/05/15 00:20:11;;;;;;;25.47;8.77;;;;;;;13.45;67.26;101838.16;6403889;23;20009;-81
2022/05/15 00:22:42;;;;;;;24.17;8.43;;;;;;;13.20;67.32;101832.22;6403643;23;20092;-80
2022/05/15 00:25:13;;;;;;;27.23;8.90;;;;;;;13.29;67.32;101828.63;6403019;23;20024;-81
2022/05/15 00:27:45;;;;;;;16.90;8.07;;;;;;;13.02;67.66;101830.56;6403850;23;20113;-79
2022/05/15 00:30:18;;;;;;;24.23;8.63;;;;;;;13.07;67.50;101831.44;6403195;23;20332;-81
2022/05/15 00:32:50;;;;;;;20.83;8.98;;;;;;;13.14;68.13;101827.88;6403246;23;20014;-82
2022/05/15 00:35:21;;;;;;;27.80;8.33;;;;;;;13.17;67.13;101826.09;6403242;23;20008;-78
2022/05/15 00:37:53;;;;;;;25.10;8.43;;;;;;;12.94;67.74;101827.13;6403691;23;20034;-81
2022/05/15 00:40:24;;;;;;;30.53;8.63;;;;;;;13.09;67.39;101834.03;6403373;23;20088;-79
2022/05/15 00:42:56;;;;;;;27.27;7.93;;;;;;;12.95;67.96;101826.25;6402977;23;20309;-81
2022/05/15 00:45:28;;;;;;;24.20;7.83;;;;;;;13.09;68.19;101828.78;6403283;23;20431;-82
2022/05/15 00:47:59;;;;;;;22.67;8.85;;;;;;;13.01;67.54;101828.84;6403345;23;20060;-80
2022/05/15 00:50:33;;;;;;;21.73;8.20;;;;;;;12.75;68.47;101824.63;6402860;23;20033;-80
2022/05/15 00:53:10;;;;;;;24.42;7.20;;;;;;;12.82;68.46;101825.44;6403189;23;20006;-80
2022/05/15 00:55:48;;;;;;;32.17;8.60;;;;;;;12.81;68.58;101828.06;6403097;23;20084;-78
2022/05/15 00:58:28;;;;;;;24.77;8.80;;;;;;;12.74;68.23;101822.88;6402692;23;20009;-80
2022/05/15 01:01:02;;;;;;;27.48;9.32;;;;;;;12.74;69.01;101812.41;6403146;23;20072;-82
2022/05/15 01:03:34;;;;;;;30.23;9.52;;;;;;;12.65;69.09;101822.03;6403160;23;20060;-82
2022/05/15 01:06:08;;;;;;;24.37;8.43;;;;;;;12.63;68.79;101819.44;6402878;23;20005;-80
2022/05/15 01:08:39;;;;;;;21.15;7.53;;;;;;;12.64;68.99;101821.19;6403656;23;20067;-81
2022/05/15 01:11:15;;;;;;;25.50;8.03;;;;;;;12.62;69.69;101822.91;6402101;23;20076;-81
2022/05/15 01:13:49;;;;;;;24.83;8.27;;;;;;;12.48;69.46;101820.38;6402392;23;20009;-80
2022/05/15 01:16:24;;;;;;;25.52;8.65;;;;;;;12.42;69.60;101824.78;6402877;23;20037;-82
2022/05/15 01:18:59;;;;;;;36.28;8.63;;;;;;;12.38;69.80;101819.56;6402759;23;20016;-82
2022/05/15 01:21:38;;;;;;;25.25;7.80;;;;;;;12.32;69.93;101826.56;6402965;23;20431;-81
2022/05/15 01:24:09;;;;;;;25.55;9.02;;;;;;;12.37;70.01;101822.16;6402802;23;20016;-80
2022/05/15 01:26:40;;;;;;;24.83;8.40;;;;;;;12.28;70.21;101816.97;6402661;23;20001;-81
2022/05/15 01:29:12;;;;;;;27.20;10.37;;;;;;;12.31;70.05;101817.81;6402783;23;20021;-81
2022/05/15 01:31:47;;;;;;;23.63;8.43;;;;;;;12.26;69.59;101830.03;6402968;23;20009;-80
2022/05/15 01:34:18;;;;;;;23.25;7.47;;;;;;;12.16;70.51;101823.97;6403108;23;20006;-79
2022/05/15 01:36:50;;;;;;;25.40;8.37;;;;;;;12.17;70.81;101825.72;6402842;23;20014;-76
2022/05/15 01:39:21;;;;;;;25.43;8.13;;;;;;;12.15;70.76;101826.59;6402812;23;20033;-81
2022/05/15 01:41:53;;;;;;;27.87;7.80;;;;;;;11.95;71.11;101826.66;6402045;23;20241;-80
2022/05/15 01:44:24;;;;;;;25.63;8.10;;;;;;;12.09;70.78;101817.03;6376098;23;20514;-78
2022/05/15 01:46:56;;;;;;;20.70;7.80;;;;;;;11.94;71.37;101820.53;6402405;23;20012;-82
2022/05/15 01:49:27;;;;;;;22.37;7.50;;;;;;;11.87;71.56;101824.00;6402718;23;20089;-80
2022/05/15 01:51:59;;;;;;;26.27;9.10;;;;;;;11.85;71.72;101826.63;6402593;23;20010;-81
2022/05/15 01:54:30;;;;;;;24.80;7.70;;;;;;;11.89;71.35;101830.09;6403125;23;20020;-80
2022/05/15 01:57:02;;;;;;;20.87;7.53;;;;;;;11.81;71.63;101824.00;6402360;23;20048;-81
2022/05/15 01:59:33;;;;;;;29.17;8.90;;;;;;;11.72;72.04;101824.00;6402226;23;20144;-81
2022/05/15 02:02:06;;;;;;;25.03;7.70;;;;;;;11.71;72.02;101825.75;6402659;23;20016;-81
2022/05/15 02:04:38;;;;;;;24.30;7.45;;;;;;;11.65;72.35;101816.19;6402419;23;20013;-81
2022/05/15 02:07:09;;;;;;;21.03;7.33;;;;;;;11.54;72.88;101817.91;6402517;23;20010;-82
2022/05/15 02:09:41;;;;;;;22.17;7.20;;;;;;;11.42;72.63;101813.59;6402856;23;20434;-82
2022/05/15 02:12:12;;;;;;;20.73;7.10;;;;;;;11.49;73.24;101810.13;6402335;23;20076;-80
2022/05/15 02:14:43;;;;;;;22.57;7.27;;;;;;;11.36;73.62;101813.56;6402313;23;20096;-82
2022/05/15 02:17:14;;;;;;;31.47;8.77;;;;;;;11.32;73.73;101804.03;6404735;23;20036;-79
2022/05/15 02:19:46;;;;;;;27.43;8.73;;;;;;;11.28;73.51;101807.47;6404987;23;20013;-81
2022/05/15 02:22:17;;;;;;;28.47;8.13;;;;;;;11.26;73.75;101807.47;6405800;23;20005;-81
2022/05/15 02:24:49;;;;;;;23.47;8.27;;;;;;;11.16;74.11;101802.25;6405062;23;20076;-82
2022/05/15 02:27:20;;;;;;;24.60;7.97;;;;;;;11.08;74.35;101805.72;6404724;23;20056;-76
2022/05/15 02:29:51;;;;;;;26.87;8.53;;;;;;;11.03;74.73;101814.41;6411333;23;20005;-80
2022/05/15 02:32:23;;;;;;;26.13;8.93;;;;;;;11.05;74.53;101815.28;6414594;23;20040;-80
2022/05/15 02:34:54;;;;;;;25.13;7.70;;;;;;;10.98;75.15;101816.13;6411507;23;20005;-80
2022/05/15 02:37:25;;;;;;;27.00;8.60;;;;;;;10.94;75.08;101810.91;6413164;23;20017;-81
2022/05/15 02:39:57;;;;;;;27.67;8.57;;;;;;;11.04;75.65;101808.31;6409389;23;20100;-80
2022/05/15 02:42:28;;;;;;;25.70;7.87;;;;;;;10.91;75.85;101800.47;6408697;23;20033;-80
2022/05/15 02:45:00;;;;;;;26.50;7.93;;;;;;;10.86;75.84;101802.19;6407202;23;20068;-78
2022/05/15 02:47:32;;;;;;;28.97;8.13;;;;;;;11.01;75.62;101805.72;6405131;23;20040;-82
2022/05/15 02:52:55;;;;;;;29.75;9.23;;;;;;;10.81;76.22;101814.38;6406642;23;20021;-81
2022/05/15 02:55:26;;;;;;;38.10;9.60;;;;;;;10.89;76.04;101798.75;6406007;23;20295;-75
2022/05/15 02:57:58;;;;;;;27.63;8.00;;;;;;;10.71;76.20;101802.19;6405345;23;19997;-82
2022/05/15 03:00:30;;;;;;;25.60;8.33;;;;;;;10.81;76.85;101790.88;6405083;23;20469;-81
2022/05/15 03:03:01;;;;;;;24.87;6.90;;;;;;;10.69;76.79;101798.66;6404593;23;20060;-75
2022/05/15 03:05:33;;;;;;;25.27;8.23;;;;;;;10.67;76.62;101789.97;6405044;23;20247;-81
2022/05/15 03:08:04;;;;;;;23.60;7.40;;;;;;;10.55;77.24;101788.22;6405762;23;20006;-81
2022/05/15 03:10:35;;;;;;;21.90;7.40;;;;;;;10.54;77.14;101789.94;6404207;23;20059;-79
2022/05/15 03:13:07;;;;;;;25.90;9.10;;;;;;;10.53;77.21;101792.56;6378001;23;20022;-81
2022/05/15 03:15:41;;;;;;;22.13;9.33;;;;;;;10.47;77.90;101798.59;6405151;23;20040;-79
2022/05/15 03:18:13;;;;;;;26.45;8.02;;;;;;;10.45;78.03;101795.13;6406286;23;20006;-80
2022/05/15 03:20:44;;;;;;;27.73;7.90;;;;;;;10.37;78.27;101779.47;6406794;23;20017;-81
2022/05/15 03:23:16;;;;;;;21.23;8.13;;;;;;;10.35;78.24;101783.81;6404880;23;20068;-78
2022/05/15 03:25:47;;;;;;;25.70;7.90;;;;;;;10.31;78.33;101789.81;6405294;23;20006;-82
2022/05/15 03:28:18;;;;;;;25.80;7.90;;;;;;;10.30;78.70;101795.03;6404247;23;20009;-82
2022/05/15 03:30:50;;;;;;;32.37;9.17;;;;;;;10.21;78.89;101785.44;6403782;23;20019;-82
2022/05/15 03:33:21;;;;;;;29.00;9.40;;;;;;;10.25;78.96;101787.19;6404763;23;20485;-81
2022/05/15 03:35:53;;;;;;;28.93;9.53;;;;;;;10.20;79.36;101791.50;6404935;23;20005;-81
2022/05/15 03:38:24;;;;;;;30.80;8.43;;;;;;;10.18;79.43;101788.03;6404968;23;20009;-79
2022/05/15 03:40:55;;;;;;;28.07;9.90;;;;;;;10.13;79.17;101780.19;6405078;23;20013;-76
2022/05/15 03:43:27;;;;;;;22.90;8.27;;;;;;;10.10;79.57;101780.16;6404042;23;20109;-81
2022/05/15 03:45:58;;;;;;;25.93;8.00;;;;;;;10.17;79.24;101784.53;6405078;23;20060;-82
2022/05/15 03:48:30;;;;;;;29.60;10.27;;;;;;;10.10;79.57;101781.91;6404011;23;20224;-81
2022/05/15 03:51:01;;;;;;;27.57;8.87;;;;;;;10.01;80.00;101777.50;6403859;23;20060;-82
2022/05/15 03:53:33;;;;;;;27.87;9.27;;;;;;;10.04;80.07;101783.59;6403702;23;20005;-82
2022/05/15 03:56:04;;;;;;;27.40;8.17;;;;;;;10.06;80.17;101783.59;6403826;23;20396;-82
2022/05/15 03:58:37;;;;;;;25.23;8.67;;;;;;;10.09;79.70;101781.03;6404719;23;20006;-81
2022/05/15 04:01:09;;;;;;;;;;;;;;;10.10;77.74;101780.16;6403554;23;20009;-81
2022/05/15 04:03:40;;;;;;;24.25;8.57;;;;;;;10.03;79.86;101778.41;6403538;23;19987;-82
2022/05/15 04:06:12;;;;;;;32.53;9.93;;;;;;;10.02;80.21;101774.91;6403791;23;20072;-81
2022/05/15 04:08:43;;;;;;;28.20;7.80;;;;;;;10.02;80.33;101779.25;6404250;23;20013;-81
2022/05/15 04:11:14;;;;;;;27.83;8.17;;;;;;;10.04;80.06;101781.00;6404138;23;20014;-82
2022/05/15 04:13:46;;;;;;;31.23;7.67;;;;;;;10.12;80.37;101786.25;6402698;23;20013;-82
2022/05/15 04:16:17;;;;;;;30.33;8.70;;;;;;;10.06;80.53;101793.16;6402976;23;20010;-79
2022/05/15 04:18:48;;;;;;;26.40;9.00;;;;;;;10.03;80.64;101796.66;6403179;23;20068;-82
2022/05/15 04:21:20;;;;;;;25.33;8.20;;;;;;;10.11;80.28;101801.88;6403136;23;20016;-82
2022/05/15 04:23:52;;;;;;;25.40;8.90;;;;;;;10.06;80.61;101801.84;6409677;23;20308;-76
2022/05/15 04:26:23;;;;;;;27.10;9.87;;;;;;;10.13;80.49;101798.41;6403809;23;20037;-81
2022/05/15 04:28:54;;;;;;;23.93;7.83;;;;;;;10.11;80.62;101797.56;6377621;23;20005;-83
2022/05/15 04:31:26;;;;;;;27.93;8.37;;;;;;;10.06;80.92;101795.78;6403044;23;20009;-75
2022/05/15 04:33:57;;;;;;;23.33;8.33;;;;;;;10.02;81.05;101800.09;6403344;23;20006;-81
2022/05/15 04:36:28;;;;;;;23.17;9.97;;;;;;;10.03;81.64;101791.44;6403064;23;20340;-80
2022/05/15 04:39:03;;;;;;;27.30;9.17;;;;;;;10.09;81.35;101788.84;6402349;23;20020;-80
2022/05/15 04:41:34;;;;;;;29.20;8.63;;;;;;;10.04;81.47;101782.72;6402642;23;20036;-80
2022/05/15 04:44:07;;;;;;;28.03;9.03;;;;;;;9.98;81.56;101785.31;6402467;23;20009;-80
2022/05/15 04:46:38;;;;;;;20.20;7.90;;;;;;;10.02;82.04;101789.69;6403446;23;20332;-81
2022/05/15 04:49:10;;;;;;;28.67;9.70;;;;;;;10.11;81.72;101786.25;6403151;23;20010;-78
2022/05/15 04:51:41;;;;;;;27.90;8.63;;;;;;;10.19;81.79;101788.03;6402453;23;20064;-79
2022/05/15 04:54:13;;;;;;;36.10;9.27;;;;;;;10.18;82.07;101783.69;6402831;23;20016;-81
2022/05/15 04:56:44;;;;;;;25.50;9.63;;;;;;;10.20;81.78;101787.16;6403317;23;20439;-77
2022/05/15 04:59:15;;;;;;;23.87;7.97;;;;;;;10.28;81.81;101783.72;6402307;23;20060;-76
2022/05/15 05:01:47;;;;;;;33.50;9.73;;;;;;;10.40;82.03;101792.50;6403887;23;20017;-81
2022/05/15 05:04:18;;;;;;;27.13;8.20;;;;;;;10.42;82.06;101789.00;6402240;23;20096;-79
2022/05/15 05:06:50;;;;;;;26.40;9.63;;;;;;;10.53;81.59;101798.63;6404179;23;20068;-81
2022/05/15 05:09:22;;;;;;;25.00;7.63;;;;;;;10.55;81.60;101796.03;6402654;23;20002;-80
2022/05/15 05:11:53;;;;;;;30.10;9.63;;;;;;;10.60;81.36;101796.91;6404554;23;20021;-77
2022/05/15 05:14:25;;;;;;;33.57;9.93;;;;;;;10.69;81.00;101806.50;6402790;23;20033;-81
2022/05/15 05:16:56;;;;;;;27.47;8.57;;;;;;;10.83;81.33;101802.19;6403032;23;20009;-81
2022/05/15 05:19:27;;;;;;;27.23;9.70;;;;;;;10.88;80.76;101799.59;6402326;23;20012;-76
2022/05/15 05:21:59;;;;;;;22.17;8.97;;;;;;;11.04;80.27;101803.09;6402759;23;20032;-81
2022/05/15 05:24:30;;;;;;;27.07;8.17;;;;;;;11.13;80.28;101803.13;6402565;23;20018;-80
2022/05/15 05:27:02;;;;;;;28.93;10.03;;;;;;;11.26;79.95;101806.63;6403793;23;20006;-82
2022/05/15 05:29:34;;;;;;;26.13;9.83;;;;;;;11.35;79.92;101797.91;6401905;23;20005;-80
2022/05/15 05:32:05;;;;;;;30.07;9.67;;;;;;;11.44;79.65;101805.75;6403293;23;20364;-81
2022/05/15 05:34:37;;;;;;;30.50;9.30;;;;;;;11.57;79.84;101801.41;6403356;23;20241;-78
2022/05/15 05:37:08;;;;;;;27.83;10.93;;;;;;;11.67;79.69;101793.56;6402530;23;20357;-80
2022/05/15 05:39:40;;;;;;;35.33;11.03;;;;;;;11.80;79.77;101793.53;6402568;23;20009;-78
2022/05/15 05:42:11;;;;;;;28.43;10.60;;;;;;;11.89;78.64;101798.75;6402158;23;20086;-81
2022/05/15 05:44:43;;;;;;;29.63;11.27;;;;;;;12.06;78.04;101796.13;6402985;23;20454;-80
2022/05/15 05:47:22;;;;;;;26.03;9.90;;;;;;;12.16;78.36;101796.97;6402514;23;20101;-80
2022/05/15 05:49:54;;;;;;;26.05;8.68;;;;;;;12.33;77.17;101800.41;6402742;23;20088;-80
2022/05/15 05:52:25;;;;;;;26.48;9.68;;;;;;;12.48;76.64;101798.59;6402624;23;20080;-81
2022/05/15 05:54:57;;;;;;;30.10;10.30;;;;;;;12.60;76.06;101798.53;6377460;23;20089;-79
2022/05/15 05:57:28;;;;;;;26.27;9.23;;;;;;;12.72;76.17;101798.47;6402695;23;20382;-77
2022/05/15 05:59:59;;;;;;;27.07;10.00;;;;;;;12.82;75.87;101799.28;6403998;23;20014;-80
2022/05/15 06:02:30;;;;;;;26.90;9.13;;;;;;;13.02;75.41;101804.38;6402307;23;20012;-77
2022/05/15 06:05:03;;;;;;;29.53;9.43;;;;;;;13.12;74.48;101807.81;6403129;23;20005;-79
2022/05/15 06:07:37;;;;;;;22.98;9.30;;;;;;;13.23;73.73;101805.13;6403296;23;20009;-82
2022/05/15 06:10:12;;;;;;;25.38;10.23;;;;;;;13.41;73.53;101801.50;6402532;23;20005;-77
2022/05/15 06:12:44;;;;;;;25.88;9.95;;;;;;;13.47;73.19;101804.94;6402255;23;20052;-78
2022/05/15 06:15:15;;;;;;;30.60;10.57;;;;;;;13.67;72.63;101798.69;6402950;23;20080;-81
2022/05/15 06:17:47;;;;;;;24.07;8.80;;;;;;;13.84;72.00;101791.50;6403792;23;20068;-81
2022/05/15 06:20:18;;;;;;;29.17;9.73;;;;;;;14.01;71.30;101791.34;6407140;23;20006;-80
2022/05/15 06:22:49;;;;;;;26.67;10.13;;;;;;;14.15;70.85;101791.19;6408522;23;20006;-80
2022/05/15 06:25:21;;;;;;;25.53;10.93;;;;;;;14.26;70.33;101790.19;6409167;23;20482;-82
2022/05/15 06:27:53;;;;;;;22.13;9.63;;;;;;;14.51;69.54;101798.63;6410406;23;20015;-78
2022/05/15 06:30:24;;;;;;;21.60;8.80;;;;;;;14.50;69.29;101794.25;6410773;23;20100;-79
2022/05/15 06:32:56;;;;;;;25.40;11.10;;;;;;;14.56;69.28;101789.78;6413469;23;20056;-82
2022/05/15 06:35:27;;;;;;;21.10;10.10;;;;;;;14.67;68.90;101794.94;6406000;23;20009;-80
2022/05/15 06:38:03;;;;;;;24.67;10.43;;;;;;;14.76;69.86;101794.81;6404906;23;20027;-81
2022/05/15 06:40:35;;;;;;;27.02;9.82;;;;;;;14.80;67.69;101790.38;6404185;23;20144;-81
2022/05/15 06:43:06;;;;;;;27.60;10.73;;;;;;;14.94;67.71;101785.81;6404346;23;20053;-81
2022/05/15 06:45:38;;;;;;;25.63;10.50;;;;;;;15.04;67.47;101791.78;6407132;23;20025;-81
2022/05/15 06:48:09;;;;;;;25.20;11.23;;;;;;;15.14;66.82;101795.13;6405250;23;20006;-78
2022/05/15 06:50:41;;;;;;;32.67;10.20;;;;;;;15.28;66.50;101790.53;6407404;23;20009;-81
2022/05/15 06:53:13;;;;;;;19.83;8.80;;;;;;;15.44;66.56;101790.25;6413273;23;20029;-82
2022/05/15 06:58:35;;;;;;;19.17;9.10;;;;;;;15.72;66.62;101790.63;6406868;23;20013;-82
2022/05/15 07:01:07;;;;;;;23.73;9.63;;;;;;;15.76;65.19;101797.63;6405831;23;20304;-81
2022/05/15 07:03:38;;;;;;;21.10;9.30;;;;;;;15.82;66.48;101786.13;6405914;23;20005;-77
2022/05/15 07:06:10;;;;;;;23.53;10.10;;;;;;;15.98;64.77;101791.94;6409905;23;20013;-82
2022/05/15 07:08:42;;;;;;;23.00;9.80;;;;;;;16.06;63.62;101792.66;6406999;23;20426;-80
2022/05/15 07:11:14;;;;;;;22.48;9.68;;;;;;;16.16;63.55;101802.09;6404129;23;20013;-79
2022/05/15 07:13:46;;;;;;;20.40;9.32;;;;;;;16.27;63.95;101795.78;6405077;23;20020;-78
2022/05/15 07:16:17;;;;;;;21.47;8.87;;;;;;;16.31;63.28;101795.69;6404372;23;20427;-76
2022/05/15 07:18:49;;;;;;;21.97;8.60;;;;;;;16.40;63.05;101810.41;6404301;23;20005;-81
2022/05/15 07:21:20;;;;;;;21.37;9.37;;;;;;;16.54;63.11;101800.44;6404098;23;20009;-81
2022/05/15 07:23:51;;;;;;;19.60;8.53;;;;;;;16.78;62.63;101814.84;6406605;23;20366;-81
2022/05/15 07:26:24;;;;;;;25.47;9.10;;;;;;;16.83;61.25;101809.47;6404528;23;20051;-82
2022/05/15 07:28:55;;;;;;;;;;;;;;;16.93;62.17;101810.16;6405871;23;20663;-82
2022/05/15 07:31:27;;;;;;;19.50;8.57;;;;;;;17.15;60.18;101813.16;6406034;23;19912;-80
2022/05/15 07:33:58;;;;;;;19.50;8.90;;;;;;;17.31;60.23;101803.97;6407861;23;20245;-82
2022/05/15 07:36:30;;;;;;;26.73;9.93;;;;;;;17.44;59.00;101806.31;6404945;23;20091;-81
2022/05/15 07:39:01;;;;;;;21.50;9.60;;;;;;;17.65;58.82;101795.22;6404661;23;20170;-80
2022/05/15 07:41:33;;;;;;;17.98;9.45;;;;;;;17.79;58.59;101801.88;6403823;23;20010;-81
2022/05/15 07:44:05;;;;;;;19.27;8.73;;;;;;;17.96;57.95;101791.78;6404026;23;20013;-77
2022/05/15 07:46:37;;;;;;;18.33;9.20;;;;;;;18.12;56.93;101794.84;6404118;23;20016;-78
2022/05/15 07:49:10;;;;;;;20.58;9.38;;;;;;;18.15;57.33;101802.69;6403961;23;20024;-80
2022/05/15 07:51:44;;;;;;;;;;;;;;;18.32;57.16;101802.22;6407321;23;20033;-81
2022/05/15 07:54:18;;;;;;;14.10;9.30;;;;;;;18.43;54.97;101795.75;6384290;23;19919;-78
2022/05/15 07:56:49;;;;;;;18.45;8.23;;;;;;;18.72;55.88;101794.88;6408743;23;20732;-81
2022/05/15 07:59:21;;;;;;;20.60;8.87;;;;;;;18.75;54.67;101800.06;6410209;23;20009;-80
2022/05/15 08:01:55;;;;;;;22.50;8.93;;;;;;;18.87;53.68;101791.78;6410852;23;20005;-80
2022/05/15 08:04:26;;;;;;;19.13;10.00;;;;;;;19.12;55.01;101796.28;6383887;23;20012;-82
2022/05/15 08:09:47;;;;;;;19.25;7.85;;;;;;;19.29;52.63;101786.00;6412685;23;20120;-76
2022/05/15 08:12:20;;;;;;;19.43;8.93;;;;;;;19.57;51.17;101785.06;6414037;23;20013;-80
2022/05/15 08:14:51;;;;;;;;;;;;;;;19.66;51.41;101789.19;6410808;23;20012;-75
2022/05/15 08:17:22;;;;;;;20.43;8.80;;;;;;;19.66;50.86;101784.75;6404767;23;19916;-80
2022/05/15 08:25:33;;;;;;;22.80;9.45;;;;;;;20.03;49.47;101762.31;6402746;23;20013;-75
2022/05/15 08:28:05;;;;;;;17.77;9.43;;;;;;;20.18;49.09;101762.66;6402821;23;20005;-80
2022/05/15 08:30:37;;;;;;;23.10;10.68;;;;;;;20.25;48.68;101763.28;6403844;23;20005;-81
2022/05/15 08:33:10;;;;;;;18.80;9.53;;;;;;;20.36;49.45;101761.94;6402719;23;20029;-79
2022/05/15 08:35:42;;;;;;;16.42;7.60;;;;;;;20.55;48.28;101762.09;6402986;23;20398;-80
2022/05/15 08:38:13;;;;;;;19.80;8.40;;;;;;;20.79;47.74;101755.94;6403047;23;20163;-80
2022/05/15 08:41:07;;;;;;;13.07;8.00;;;;;;;20.95;47.25;101751.72;6403182;23;20737;-81
2022/05/15 08:43:43;;;;;;;20.45;8.63;;;;;;;21.08;45.76;101741.47;6279249;23;20018;-80
2022/05/15 08:46:27;;;;;;;18.00;8.18;;;;;;;21.08;45.61;101747.63;6278799;23;20042;-79
2022/05/15 08:49:12;;;;;;;17.42;7.60;;;;;;;21.21;45.10;101744.47;6278672;23;20403;-81
2022/05/15 08:51:55;;;;;;;17.35;8.23;;;;;;;21.23;44.21;101743.47;6279218;23;20819;-79
2022/05/15 08:54:28;;;;;;;17.52;7.90;;;;;;;21.14;43.41;101741.22;6278841;23;20007;-79
2022/05/15 08:56:59;;;;;;;18.25;8.55;;;;;;;21.34;43.86;101735.06;6278683;23;20011;-81
2022/05/15 08:59:37;;;;;;;17.50;6.77;;;;;;;21.55;44.09;101735.09;6279587;23;20019;-78
2022/05/15 09:02:11;;;;;;;20.55;8.20;;;;;;;21.73;43.37;101734.28;6278077;23;20015;-80
2022/05/15 09:04:42;;;;;;;17.42;7.10;;;;;;;21.99;42.36;101729.59;6278251;23;20011;-80
2022/05/15 09:07:25;;;;;;;12.47;5.67;;;;;;;22.35;42.26;101732.34;6278809;23;20015;-81
2022/05/15 09:10:12;;;;;;;16.35;6.22;;;;;;;21.95;39.93;101734.19;6278977;23;20079;-80
2022/05/15 09:12:48;;;;;;;20.02;6.55;;;;;;;21.99;39.25;101734.88;6278730;23;20019;-75
2022/05/15 09:15:26;;;;;;;20.25;6.63;;;;;;;22.11;39.72;101730.84;6278255;23;20126;-80
2022/05/15 09:18:03;;;;;;;16.48;6.45;;;;;;;22.27;39.97;101726.53;6278407;23;20011;-77
2022/05/15 09:20:53;;;;;;;15.07;6.72;;;;;;;22.54;40.08;101734.13;6337323;23;20013;-80
2022/05/15 09:23:38;;;;;;;12.35;5.75;;;;;;;22.91;39.24;101738.53;6402778;23;20437;-80
2022/05/15 09:26:25;;;;;;;14.45;5.88;;;;;;;23.13;39.36;101732.16;6401879;23;20005;-80
2022/05/15 09:29:01;;;;;;;40.78;5.72;;;;;;;23.12;37.92;101731.28;6375331;23;20093;-80
2022/05/15 09:31:35;;;;;;;14.05;5.50;;;;;;;23.09;36.20;101730.59;6377555;23;20064;-78
2022/05/15 09:34:20;;;;;;;17.98;5.43;;;;;;;23.40;36.67;101726.38;6402681;23;20364;-78
2022/05/15 09:38:26;;;;;;;12.23;5.05;;;;;;;23.73;36.67;101721.06;6402857;23;20013;-78
2022/05/15 09:39:46;;;;;;;16.35;4.53;;;;;;;23.64;35.81;101727.72;6405701;23;20088;-77
2022/05/15 09:45:14;;;;;;;17.60;5.93;;;;;;;23.95;34.41;101722.59;6403417;23;20021;-79
2022/05/15 09:48:01;;;;;;;10.77;4.93;;;;;;;24.40;32.76;101711.19;6403739;23;20423;-81
2022/05/15 09:50:49;;;;;;;11.27;4.53;;;;;;;25.83;31.81;101715.22;6402465;23;20085;-81
2022/05/15 09:53:24;;;;;;;14.82;5.13;;;;;;;26.98;28.85;101714.09;6402454;23;20064;-81
2022/05/15 09:56:00;;;;;;;10.38;4.15;;;;;;;27.92;27.66;101706.75;6403985;23;20482;-79
2022/05/15 09:58:39;;;;;;;15.45;4.35;;;;;;;28.63;25.70;101704.34;6402436;23;20006;-80
2022/05/15 10:01:40;;;;;;;14.52;5.15;;;;;;;29.29;25.60;101704.69;6402840;23;20040;-79
2022/05/15 10:04:26;;;;;;;13.70;4.40;;;;;;;29.87;24.79;101701.09;6401817;23;20014;-81
2022/05/15 10:07:04;;;;;;;12.43;4.60;;;;;;;30.24;22.55;101707.00;6402649;23;20012;-79
2022/05/15 10:09:41;;;;;;;14.10;4.40;;;;;;;31.02;22.08;101718.47;6402315;23;20009;-79
2022/05/15 10:12:15;;;;;;;13.60;4.68;;;;;;;31.34;20.02;101708.63;6402517;23;20010;-77
2022/05/15 10:14:51;;;;;;;10.20;4.50;;;;;;;31.37;20.90;101716.44;6402618;23;20009;-80
2022/05/15 10:17:25;;;;;;;12.32;4.40;;;;;;;31.48;19.76;101705.59;6402546;23;20025;-80
2022/05/15 10:20:04;;;;;;;12.77;4.50;;;;;;;31.50;20.61;101700.91;6402004;23;20010;-78
2022/05/15 10:22:53;;;;;;;12.48;4.60;;;;;;;32.66;20.92;101694.16;6377390;23;20013;-79
2022/05/15 10:25:59;;;;;;;10.18;4.75;;;;;;;32.66;20.65;101693.31;6402658;23;20006;-81
2022/05/15 10:28:38;;;;;;;12.75;4.80;;;;;;;32.84;19.95;101696.16;6403017;23;20006;-81
2022/05/15 10:31:30;;;;;;;16.23;5.30;;;;;;;33.74;20.40;101686.69;6402598;23;20085;-80
2022/05/15 10:34:04;;;;;;;11.07;4.20;;;;;;;32.96;18.68;101691.44;6403146;23;20010;-79
2022/05/15 10:36:44;;;;;;;12.85;3.97;;;;;;;32.71;18.88;101686.47;6402132;23;20299;-79
2022/05/15 10:39:52;;;;;;;8.45;4.57;;;;;;;33.92;18.92;101677.75;6403347;23;20021;-79
2022/05/15 10:42:44;;;;;;;11.80;4.60;;;;;;;33.39;19.03;101673.84;6404234;23;20136;-79
2022/05/15 10:45:38;;;;;;;14.90;6.18;;;;;;;33.98;17.97;101667.19;6405833;23;20021;-77
2022/05/15 10:48:53;;;;;;;15.77;4.95;;;;;;;34.24;19.08;101666.47;6409508;23;20009;-78
2022/05/15 10:51:45;;;;;;;14.32;4.50;;;;;;;33.69;18.56;101656.50;6409315;23;20017;-80
2022/05/15 10:57:33;;;;;;;9.57;4.45;;;;;;;34.05;18.02;101667.41;6405491;23;20261;-82
2022/05/15 11:00:22;;;;;;;13.65;5.28;;;;;;;34.60;19.38;101663.75;6406685;23;20384;-79
2022/05/15 11:03:05;;;;;;;15.43;4.55;;;;;;;34.98;18.55;101655.44;6408673;23;20408;-79
2022/05/15 11:05:49;;;;;;;14.70;4.57;;;;;;;35.24;18.54;101661.72;6407287;23;20009;-80
2022/05/15 11:08:20;;;;;;;11.93;4.78;;;;;;;35.29;16.41;101665.78;6406348;23;20009;-80
2022/05/15 11:10:58;;;;;;;13.13;5.28;;;;;;;34.51;16.90;101668.25;6407027;23;20096;-80
2022/05/15 11:13:54;;;;;;;13.18;4.90;;;;;;;34.58;17.38;101663.03;6406185;23;20088;-80
2022/05/15 11:16:39;;;;;;;10.00;4.47;;;;;;;35.19;17.08;101650.47;6405527;23;20016;-81
2022/05/15 11:19:41;;;;;;;12.43;3.85;;;;;;;35.69;16.96;101648.00;6405245;23;20014;-79
2022/05/15 11:22:24;;;;;;;10.25;4.22;;;;;;;36.33;18.14;101645.66;6405324;23;20010;-79
2022/05/15 11:25:04;;;;;;;8.48;3.47;;;;;;;36.21;15.38;101650.53;6417106;23;20013;-78
2022/05/15 11:27:51;;;;;;;12.43;4.32;;;;;;;37.00;15.58;101644.59;6405412;23;20096;-79
2022/05/15 11:30:27;;;;;;;11.43;4.50;;;;;;;37.00;15.38;101629.16;6405109;23;20427;-79
2022/05/15 11:33:04;;;;;;;8.93;4.47;;;;;;;36.53;14.41;101629.84;6404838;23;20009;-80
2022/05/15 11:35:40;;;;;;;11.02;3.70;;;;;;;36.96;15.17;101619.66;6404801;23;20080;-81
2022/05/15 11:38:29;;;;;;;10.73;4.00;;;;;;;38.16;14.35;101612.31;6404195;23;20009;-78
2022/05/15 11:41:29;;;;;;;10.52;4.50;;;;;;;38.19;14.23;101618.25;6404226;23;20036;-82
2022/05/15 11:44:25;;;;;;;9.13;3.97;;;;;;;37.21;13.90;101604.16;6404591;23;20569;-80
2022/05/15 11:46:59;;;;;;;12.07;3.88;;;;;;;37.19;14.16;101608.03;6339396;23;20341;-79
2022/05/15 11:49:31;;;;;;;10.00;4.60;;;;;;;37.16;14.37;101602.94;6338905;23;20098;-79
2022/05/15 11:52:08;;;;;;;10.07;4.80;;;;;;;36.72;14.22;101595.22;6339107;23;20034;-79
2022/05/15 11:54:45;;;;;;;9.55;3.85;;;;;;;37.43;14.36;101598.94;6340655;23;20010;-79
2022/05/15 11:57:46;;;;;;;11.10;4.03;;;;;;;39.03;14.21;101585.44;6341752;23;20033;-79
2022/05/15 12:00:24;;;;;;;9.75;3.92;;;;;;;38.81;14.81;101589.09;6249648;23;20480;-78
2022/05/15 12:02:58;;;;;;;11.75;4.28;;;;;;;38.46;13.01;101566.94;6250653;23;20023;-81
2022/05/15 12:05:37;;;;;;;12.63;4.68;;;;;;;38.25;15.81;101579.38;6249981;23;20059;-80
2022/05/15 12:08:17;;;;;;;10.00;3.75;;;;;;;38.85;14.27;101580.38;6249466;23;20027;-78
2022/05/15 12:10:48;;;;;;;8.52;4.65;;;;;;;38.99;12.45;101589.56;6249434;23;20043;-80
2022/05/15 12:13:39;;;;;;;7.27;3.53;;;;;;;39.73;12.55;101585.06;6249236;23;20059;-79